Time;durP1;ratioP1;P1;durP2;ratioP2;P2;SDS_P1;SDS_P2;PMS_P1;PMS_P2;Temp;Humidity;BMP_temperature;BMP_pressure;BME280_temperature;BME280_humidity;BME280_pressure;Samples;Min_cycle;Max_cycle;Signal;HPM_P1;HPM_P2
2023/05/10 00:02:18;;;;;;;18.63;14.10;;;;;;;13.34;100.00;100172.78;4943237;28;20134;-79
2023/05/10 00:04:45;;;;;;;18.98;14.23;;;;;;;13.30;100.00;100174.97;4941854;28;20075;-78
2023/05/10 00:07:11;;;;;;;19.80;14.68;;;;;;;13.30;100.00;100172.34;4937405;28;20554;-78
2023/05/10 00:09:38;;;;;;;19.48;14.57;;;;;;;13.25;100.00;100180.78;4940314;28;20071;-78
2023/05/10 00:12:05;;;;;;;19.65;14.75;;;;;;;13.29;100.00;100165.44;4937716;28;20472;-78
2023/05/10 00:14:33;;;;;;;19.20;14.50;;;;;;;13.33;100.00;100169.34;4939320;28;20107;-78
2023/05/10 00:16:59;;;;;;;18.08;14.40;;;;;;;13.32;100.00;100170.34;4936053;28;20094;-79
2023/05/10 00:19:26;;;;;;;18.05;14.20;;;;;;;13.34;100.00;100170.97;4939216;28;20131;-79
2023/05/10 00:21:53;;;;;;;19.50;14.45;;;;;;;13.32;100.00;100166.91;4939928;28;20051;-79
2023/05/10 00:24:19;;;;;;;18.65;14.25;;;;;;;13.25;100.00;100161.56;4939606;28;20059;-79
2023/05/10 00:26:46;;;;;;;18.77;14.23;;;;;;;13.24;100.00;100167.81;4939431;28;20496;-79
2023/05/10 00:29:13;;;;;;;19.00;14.25;;;;;;;13.32;100.00;100174.78;4937435;28;20131;-78
2023/05/10 00:31:40;;;;;;;19.17;14.65;;;;;;;13.29;100.00;100175.97;4934704;28;20123;-78
2023/05/10 00:34:07;;;;;;;19.52;15.32;;;;;;;13.33;100.00;100177.22;4936733;28;20138;-77
2023/05/10 00:36:34;;;;;;;23.10;15.20;;;;;;;13.29;100.00;100176.78;4935977;28;20058;-78
2023/05/10 00:39:00;;;;;;;22.02;15.98;;;;;;;13.35;100.00;100169.16;4935670;28;20048;-76
2023/05/10 00:41:27;;;;;;;21.42;17.00;;;;;;;13.26;100.00;100171.91;4936088;28;20048;-78
2023/05/10 00:43:53;;;;;;;21.85;17.27;;;;;;;13.23;100.00;100171.47;4937501;28;20048;-78
2023/05/10 00:46:21;;;;;;;21.40;16.20;;;;;;;13.26;100.00;100173.72;4935716;28;20060;-78
2023/05/10 00:48:50;;;;;;;22.65;16.33;;;;;;;13.21;100.00;100176.09;4938048;28;20087;-78
2023/05/10 00:51:16;;;;;;;21.63;16.48;;;;;;;13.23;100.00;100179.34;4936715;28;20060;-78
2023/05/10 00:53:46;;;;;;;20.70;16.35;;;;;;;13.28;100.00;100175.16;4978824;28;20175;-77
2023/05/10 00:56:13;;;;;;;23.55;16.08;;;;;;;13.24;100.00;100167.81;4932245;28;20527;-77
2023/05/10 00:58:40;;;;;;;21.92;16.77;;;;;;;13.26;100.00;100168.44;4935594;28;20070;-78
2023/05/10 01:01:07;;;;;;;23.00;16.48;;;;;;;13.25;100.00;100172.88;4931577;28;20249;-77
2023/05/10 01:03:35;;;;;;;21.70;15.63;;;;;;;13.24;100.00;100178.31;4934214;28;20478;-77
2023/05/10 01:06:03;;;;;;;21.20;15.63;;;;;;;13.30;100.00;100177.59;4937126;28;20562;-77
2023/05/10 01:08:30;;;;;;;21.75;16.27;;;;;;;13.23;100.00;100184.63;4934892;28;20058;-77
2023/05/10 01:10:56;;;;;;;25.92;17.77;;;;;;;13.23;100.00;100182.78;4934438;28;20105;-78
2023/05/10 01:13:33;;;;;;;22.52;16.83;;;;;;;13.26;100.00;100171.06;4934709;28;20143;-77
2023/05/10 01:16:01;;;;;;;22.48;16.80;;;;;;;13.23;100.00;100181.97;4936265;28;20055;-77
2023/05/10 01:18:29;;;;;;;22.30;16.25;;;;;;;13.15;100.00;100190.75;4943198;28;20050;-78
2023/05/10 01:21:11;;;;;;;25.55;17.58;;;;;;;13.21;100.00;100178.72;4939197;28;20450;-78
2023/05/10 01:23:59;;;;;;;26.17;17.75;;;;;;;13.23;100.00;100181.97;4936096;28;20143;-77
2023/05/10 01:26:59;;;;;;;26.83;17.02;;;;;;;13.21;100.00;100187.41;4935170;28;20052;-77
2023/05/10 01:30:07;;;;;;;24.67;17.50;;;;;;;13.18;100.00;100186.97;4918349;28;20052;-77
2023/05/10 01:32:42;;;;;;;25.50;17.05;;;;;;;13.17;100.00;100186.16;4893117;28;20056;-77
2023/05/10 01:35:17;;;;;;;23.02;15.45;;;;;;;13.21;100.00;100194.50;4934810;28;20135;-78
2023/05/10 01:37:53;;;;;;;20.42;14.77;;;;;;;13.28;100.00;100200.63;4934669;28;20067;-77
2023/05/10 01:40:26;;;;;;;17.02;13.48;;;;;;;13.25;100.00;100185.22;4933969;28;20099;-77
2023/05/10 01:42:58;;;;;;;19.10;13.75;;;;;;;13.28;100.00;100195.34;4933971;28;20056;-77
2023/05/10 01:45:31;;;;;;;17.48;12.65;;;;;;;13.23;100.00;100190.66;4931580;28;20083;-77
2023/05/10 01:48:07;;;;;;;15.73;12.10;;;;;;;13.24;100.00;100191.47;4927586;28;20127;-77
2023/05/10 01:50:36;;;;;;;16.48;12.25;;;;;;;13.20;100.00;100187.59;4934520;28;20082;-77
2023/05/10 01:53:04;;;;;;;18.05;11.57;;;;;;;13.22;100.00;100191.69;4927323;28;20131;-77
2023/05/10 01:55:36;;;;;;;14.55;10.55;;;;;;;13.18;100.00;100187.78;4936458;28;20504;-78
2023/05/10 01:58:06;;;;;;;14.82;10.88;;;;;;;13.22;100.00;100190.88;4936758;28;20562;-78
2023/05/10 02:00:34;;;;;;;12.90;9.55;;;;;;;13.26;100.00;100187.66;4934013;28;20135;-78
2023/05/10 02:03:04;;;;;;;13.07;9.52;;;;;;;13.24;100.00;100186.22;4937265;28;20051;-77
2023/05/10 02:05:34;;;;;;;13.05;9.35;;;;;;;13.19;100.00;100181.53;4930366;28;20134;-76
2023/05/10 02:08:02;;;;;;;13.52;9.13;;;;;;;13.13;100.00;100184.03;4932378;28;20057;-76
2023/05/10 02:10:29;;;;;;;11.95;8.68;;;;;;;13.17;100.00;100193.22;4927925;28;20119;-76
2023/05/10 02:13:00;;;;;;;15.13;9.88;;;;;;;13.15;100.00;100180.25;4931421;28;20130;-77
2023/05/10 02:15:28;;;;;;;11.30;9.00;;;;;;;13.18;100.00;100187.78;4928589;28;20109;-77
2023/05/10 02:17:57;;;;;;;13.45;9.18;;;;;;;13.11;100.00;100193.91;4931770;28;20056;-76
2023/05/10 02:20:25;;;;;;;12.05;9.27;;;;;;;13.08;100.00;100191.66;4931203;28;20135;-77
2023/05/10 02:22:55;;;;;;;15.65;8.90;;;;;;;13.14;100.00;100194.38;4931233;28;20048;-77
2023/05/10 02:25:24;;;;;;;11.68;9.02;;;;;;;13.18;100.00;100197.47;4930458;28;20052;-76
2023/05/10 02:27:54;;;;;;;14.95;9.63;;;;;;;13.21;100.00;100205.81;4923421;28;20051;-77
2023/05/10 02:30:22;;;;;;;15.23;9.57;;;;;;;13.20;100.00;100203.38;4929105;28;20051;-77
2023/05/10 02:32:49;;;;;;;12.73;9.82;;;;;;;13.16;100.00;100202.09;4931700;28;20055;-77
2023/05/10 02:35:17;;;;;;;12.05;8.90;;;;;;;13.15;100.00;100200.44;4934326;28;20135;-77
2023/05/10 02:37:46;;;;;;;13.20;9.25;;;;;;;13.10;100.00;100214.13;4935178;28;20052;-77
2023/05/10 02:40:16;;;;;;;14.18;10.20;;;;;;;13.09;100.00;100215.13;4966973;28;20041;-77
2023/05/10 02:42:46;;;;;;;13.30;9.95;;;;;;;13.15;100.00;100200.44;4921399;28;20063;-76
2023/05/10 02:45:15;;;;;;;14.23;9.88;;;;;;;13.17;100.00;100209.81;4915984;28;20139;-77
2023/05/10 02:47:42;;;;;;;16.92;10.45;;;;;;;13.20;100.00;100206.00;4933680;28;20474;-76
2023/05/10 02:50:09;;;;;;;12.68;9.32;;;;;;;13.15;100.00;100210.94;4970687;28;20048;-77
2023/05/10 02:52:41;;;;;;;15.70;9.70;;;;;;;13.15;100.00;100205.69;4933135;28;20114;-77
2023/05/10 02:55:10;;;;;;;14.88;9.32;;;;;;;13.16;100.00;100210.81;4934307;28;20052;-76
2023/05/10 02:57:42;;;;;;;14.10;10.35;;;;;;;13.13;100.00;100216.38;4935406;28;20413;-77
2023/05/10 03:00:10;;;;;;;15.98;10.45;;;;;;;13.12;100.00;100222.63;4934439;28;20051;-77
2023/05/10 03:02:36;;;;;;;13.05;10.05;;;;;;;13.16;100.00;100223.94;4933073;28;20565;-75
2023/05/10 03:05:03;;;;;;;14.15;10.45;;;;;;;13.18;100.00;100229.00;4935500;28;20087;-76
2023/05/10 03:07:30;;;;;;;15.40;10.43;;;;;;;13.20;100.00;100227.84;4942312;28;20063;-76
2023/05/10 03:09:57;;;;;;;14.98;10.88;;;;;;;13.19;100.00;100228.00;4971543;28;20084;-77
2023/05/10 03:12:32;;;;;;;17.08;11.07;;;;;;;13.12;100.00;100224.44;4943041;28;20218;-78
2023/05/10 03:15:11;;;;;;;18.77;11.02;;;;;;;13.17;100.00;100230.00;4936527;28;20051;-75
2023/05/10 03:17:48;;;;;;;15.43;11.20;;;;;;;13.21;100.00;100223.38;4942212;28;20067;-78
2023/05/10 03:20:22;;;;;;;16.77;11.20;;;;;;;13.16;100.00;100221.31;4941638;28;20134;-78
2023/05/10 03:22:52;;;;;;;16.17;12.10;;;;;;;13.21;100.00;100223.38;4946506;28;20059;-79
2023/05/10 03:25:21;;;;;;;17.63;12.13;;;;;;;13.24;100.00;100220.38;4940613;28;20070;-78
2023/05/10 03:27:49;;;;;;;17.10;11.70;;;;;;;13.23;100.00;100229.28;4934088;28;20130;-77
2023/05/10 03:30:18;;;;;;;19.15;13.50;;;;;;;13.23;100.00;100234.53;4932631;28;20050;-78
2023/05/10 03:32:44;;;;;;;21.08;13.27;;;;;;;13.21;100.00;100242.59;4934215;28;20142;-77
2023/05/10 03:35:13;;;;;;;19.88;13.77;;;;;;;13.24;100.00;100228.25;4935546;28;20127;-76
2023/05/10 03:37:39;;;;;;;20.10;14.52;;;;;;;13.23;100.00;100230.06;4935398;28;20092;-77
2023/05/10 03:40:08;;;;;;;20.55;14.43;;;;;;;13.27;100.00;100241.03;4934797;28;20134;-78
2023/05/10 03:42:35;;;;;;;25.23;17.90;;;;;;;13.30;100.00;100230.16;4954804;28;20127;-77
2023/05/10 03:45:01;;;;;;;27.83;20.48;;;;;;;13.26;100.00;100239.41;4935475;28;20054;-77
2023/05/10 03:47:30;;;;;;;29.10;20.95;;;;;;;13.26;100.00;100234.13;4932988;28;20060;-77
2023/05/10 03:49:56;;;;;;;31.25;22.98;;;;;;;13.22;100.00;100238.97;4933682;28;20633;-76
2023/05/10 03:52:23;;;;;;;29.70;22.38;;;;;;;13.25;100.00;100240.38;4933759;28;20508;-77
2023/05/10 03:54:50;;;;;;;30.38;21.58;;;;;;;13.23;100.00;100242.41;4952032;28;20050;-77
2023/05/10 03:57:16;;;;;;;32.22;22.50;;;;;;;13.28;100.00;100247.91;4944712;28;20087;-78
2023/05/10 03:59:43;;;;;;;30.80;21.00;;;;;;;13.26;100.00;100239.41;4938045;28;20048;-78
2023/05/10 04:02:09;;;;;;;28.73;19.95;;;;;;;13.24;100.00;100241.38;4948722;28;20119;-77
2023/05/10 04:04:37;;;;;;;31.60;21.05;;;;;;;13.29;100.00;100252.16;4939873;28;20112;-78
2023/05/10 04:07:04;;;;;;;31.05;21.95;;;;;;;13.34;100.00;100241.94;4935376;28;20074;-78
2023/05/10 04:09:31;;;;;;;29.10;20.45;;;;;;;13.31;100.00;100242.28;4940385;28;20079;-78
2023/05/10 04:11:59;;;;;;;29.58;19.45;;;;;;;13.41;100.00;100240.19;4935776;28;20058;-78
2023/05/10 04:14:25;;;;;;;32.55;20.27;;;;;;;13.30;100.00;100251.16;4939875;28;20151;-76
2023/05/10 04:16:52;;;;;;;27.70;19.70;;;;;;;13.19;100.00;100243.78;4977553;28;20130;-76
2023/05/10 04:19:18;;;;;;;28.67;19.35;;;;;;;13.14;100.00;100240.84;4937752;28;20154;-78
2023/05/10 04:21:46;;;;;;;25.77;18.15;;;;;;;13.06;100.00;100240.94;4929796;28;20503;-78
2023/05/10 04:24:13;;;;;;;28.65;19.38;;;;;;;13.09;100.00;100238.75;4937746;28;20071;-78
2023/05/10 04:26:40;;;;;;;33.20;20.25;;;;;;;13.12;100.00;100240.22;4934843;28;20063;-78
2023/05/10 04:29:06;;;;;;;28.48;20.13;;;;;;;13.09;100.00;100238.75;4935485;28;20058;-77
2023/05/10 04:31:34;;;;;;;28.17;19.55;;;;;;;13.06;100.00;100247.00;4933056;28;20055;-79
2023/05/10 04:34:00;;;;;;;26.80;18.90;;;;;;;13.09;100.00;100244.00;4933538;28;20515;-77
2023/05/10 04:36:27;;;;;;;26.73;19.83;;;;;;;13.07;100.00;100251.25;4935732;28;20490;-76
2023/05/10 04:38:55;;;;;;;26.63;19.08;;;;;;;13.04;100.00;100245.56;4934714;28;20048;-78
2023/05/10 04:41:22;;;;;;;27.25;20.10;;;;;;;13.15;100.00;100252.97;4933930;28;20055;-77
2023/05/10 04:43:49;;;;;;;28.70;20.33;;;;;;;13.02;100.00;100253.59;4933785;28;20154;-77
2023/05/10 04:46:15;;;;;;;30.88;21.20;;;;;;;12.95;100.00;100253.50;4933552;28;20055;-78
2023/05/10 04:48:42;;;;;;;29.20;21.15;;;;;;;12.99;100.00;100253.16;4939150;28;20134;-78
2023/05/10 04:51:09;;;;;;;26.55;20.27;;;;;;;13.03;100.00;100255.25;4938581;28;20051;-77
2023/05/10 04:53:35;;;;;;;28.77;20.65;;;;;;;12.95;100.00;100258.75;4938008;28;20205;-78
2023/05/10 04:56:04;;;;;;;30.75;19.77;;;;;;;13.09;100.00;100258.97;4937295;28;20075;-79
2023/05/10 04:58:30;;;;;;;28.67;20.30;;;;;;;13.03;100.00;100257.88;4942591;28;20111;-78
2023/05/10 05:00:57;;;;;;;30.65;19.77;;;;;;;13.04;100.00;100263.94;4936167;28;20138;-78
2023/05/10 05:03:24;;;;;;;29.80;19.65;;;;;;;13.03;100.00;100267.56;4979474;28;20084;-80
2023/05/10 05:05:50;;;;;;;31.50;20.30;;;;;;;12.98;100.00;100268.09;4953469;28;20497;-78
2023/05/10 05:08:17;;;;;;;34.22;20.75;;;;;;;12.94;100.00;100267.63;4947660;28;20086;-78
2023/05/10 05:10:43;;;;;;;29.95;20.67;;;;;;;13.00;100.00;100266.09;4930694;28;20051;-77
2023/05/10 05:13:13;;;;;;;30.17;19.67;;;;;;;13.09;100.00;100265.03;4928343;28;20074;-77
2023/05/10 05:15:40;;;;;;;28.95;20.42;;;;;;;13.12;100.00;100269.09;4930398;28;20147;-77
2023/05/10 05:18:06;;;;;;;27.95;18.92;;;;;;;13.13;100.00;100270.72;4932613;28;20067;-77
2023/05/10 05:20:34;;;;;;;27.50;17.58;;;;;;;13.09;100.00;100274.72;4972481;28;20128;-76
2023/05/10 05:23:00;;;;;;;26.85;18.30;;;;;;;13.11;100.00;100283.22;4929594;28;20063;-77
2023/05/10 05:25:27;;;;;;;32.35;19.35;;;;;;;13.06;100.00;100282.97;4934088;28;20056;-78
2023/05/10 05:27:54;;;;;;;31.88;18.77;;;;;;;13.08;100.00;100276.53;4938923;28;20056;-79
2023/05/10 05:30:22;;;;;;;30.27;18.40;;;;;;;13.13;100.00;100276.81;4964849;28;20103;-78
2023/05/10 05:32:48;;;;;;;27.70;17.65;;;;;;;13.07;100.00;100274.09;4935784;28;20574;-77
2023/05/10 05:35:15;;;;;;;36.13;17.70;;;;;;;13.14;100.00;100277.63;4933185;28;20051;-77
2023/05/10 05:37:42;;;;;;;30.88;17.15;;;;;;;13.18;100.00;100287.63;4934273;28;20060;-77
2023/05/10 05:40:13;;;;;;;31.33;18.08;;;;;;;13.28;100.00;100282.06;4927582;28;20142;-79
2023/05/10 05:42:39;;;;;;;25.98;17.95;;;;;;;13.26;100.00;100286.69;4935566;28;20134;-79
2023/05/10 05:45:08;;;;;;;26.65;16.73;;;;;;;13.31;100.00;100286.97;4934125;28;20464;-77
2023/05/10 05:47:36;;;;;;;24.92;16.02;;;;;;;13.24;100.00;100286.06;4932131;28;20583;-80
2023/05/10 05:50:03;;;;;;;26.58;16.98;;;;;;;13.21;100.00;100279.38;4932991;28;20551;-78
2023/05/10 05:52:29;;;;;;;24.27;16.65;;;;;;;13.27;100.00;100290.94;4933428;28;20052;-78
2023/05/10 05:54:56;;;;;;;26.13;16.73;;;;;;;13.24;100.00;100299.19;4933952;28;20058;-78
2023/05/10 05:57:26;;;;;;;25.98;16.10;;;;;;;13.33;100.00;100295.47;4931656;28;20052;-76
2023/05/10 05:59:53;;;;;;;22.08;15.07;;;;;;;13.43;100.00;100301.28;4923304;28;20044;-76
2023/05/10 06:02:19;;;;;;;22.02;16.15;;;;;;;13.46;100.00;100295.66;4921572;28;20048;-77
2023/05/10 06:04:47;;;;;;;28.23;16.27;;;;;;;13.23;100.00;100303.63;4937668;28;20157;-78
2023/05/10 06:07:14;;;;;;;28.13;17.30;;;;;;;13.27;100.00;100304.09;4927398;28;20131;-77
2023/05/10 06:09:40;;;;;;;28.80;17.88;;;;;;;13.24;100.00;100307.88;4923859;28;20423;-76
2023/05/10 06:12:07;;;;;;;29.13;16.80;;;;;;;13.26;100.00;100307.72;4920857;28;20082;-77
2023/05/10 06:14:34;;;;;;;25.25;16.70;;;;;;;13.17;100.00;100309.63;4923783;28;20139;-76
2023/05/10 06:17:00;;;;;;;27.33;18.20;;;;;;;13.16;100.00;100323.75;4926790;28;20151;-77
2023/05/10 06:19:27;;;;;;;29.00;18.10;;;;;;;13.17;100.00;100325.41;4924338;28;20134;-77
2023/05/10 06:21:55;;;;;;;31.65;18.70;;;;;;;13.11;100.00;100336.59;4926660;28;20131;-77
2023/05/10 06:24:22;;;;;;;32.92;19.00;;;;;;;13.09;100.00;100333.31;4923716;28;20048;-77
2023/05/10 06:26:49;;;;;;;28.52;18.25;;;;;;;13.10;100.00;100334.97;4887326;28;1143422;-77
2023/05/10 06:29:16;;;;;;;40.65;21.73;;;;;;;13.07;100.00;100331.88;4920983;28;20059;-78
2023/05/10 06:31:46;;;;;;;35.03;21.48;;;;;;;13.06;100.00;100340.75;4937011;28;20134;-76
2023/05/10 06:34:13;;;;;;;34.95;20.38;;;;;;;13.04;100.00;100340.09;4929648;28;20048;-77
2023/05/10 06:36:40;;;;;;;32.28;20.73;;;;;;;13.10;100.00;100352.53;4926325;28;20064;-77
2023/05/10 06:39:08;;;;;;;36.45;20.05;;;;;;;13.11;100.00;100351.53;4929383;28;20048;-78
2023/05/10 06:41:34;;;;;;;38.35;22.52;;;;;;;13.13;100.00;100342.47;4929474;28;20098;-77
2023/05/10 06:44:01;;;;;;;64.15;23.58;;;;;;;13.12;100.00;100361.03;4929641;28;20058;-76
2023/05/10 06:46:28;;;;;;;43.03;21.55;;;;;;;13.03;100.00;100355.06;4926561;28;20130;-76
2023/05/10 06:48:54;;;;;;;37.15;21.65;;;;;;;13.01;100.00;100361.47;4925350;28;20158;-76
2023/05/10 06:51:21;;;;;;;36.78;20.73;;;;;;;13.10;100.00;100366.47;4925021;28;20872;-77
2023/05/10 06:53:55;;;;;;;34.95;21.63;;;;;;;13.10;100.00;100371.72;4930348;28;20058;-76
2023/05/10 06:56:25;;;;;;;39.58;21.67;;;;;;;13.14;100.00;100372.19;4920776;28;20063;-77
2023/05/10 06:58:58;;;;;;;41.10;23.20;;;;;;;13.21;100.00;100376.59;4930942;28;20059;-75
2023/05/10 07:01:28;;;;;;;35.35;20.35;;;;;;;13.11;100.00;100378.63;4923446;28;20082;-78
2023/05/10 07:03:55;;;;;;;34.50;20.33;;;;;;;13.18;100.00;100381.38;4910072;28;20048;-76
2023/05/10 07:06:21;;;;;;;31.08;19.65;;;;;;;13.17;100.00;100377.94;4922094;28;20063;-76
2023/05/10 07:08:48;;;;;;;35.95;21.05;;;;;;;13.17;100.00;100383.19;4922339;28;20048;-75
2023/05/10 07:11:15;;;;;;;32.17;20.67;;;;;;;13.24;100.00;100383.28;4924433;28;20043;-75
2023/05/10 07:13:44;;;;;;;35.33;20.52;;;;;;;13.39;100.00;100376.22;4922187;28;20529;-76
2023/05/10 07:16:11;;;;;;;36.50;20.20;;;;;;;13.36;100.00;100375.78;4926009;28;20051;-76
2023/05/10 07:18:37;;;;;;;30.10;19.55;;;;;;;13.50;100.00;100378.41;4927364;28;20047;-76
2023/05/10 07:21:04;;;;;;;29.88;19.90;;;;;;;13.55;100.00;100386.56;4929768;28;20056;-77
2023/05/10 07:23:45;;;;;;;31.77;20.58;;;;;;;13.48;100.00;100383.03;4917059;28;20052;-76
2023/05/10 07:26:12;;;;;;;31.70;19.58;;;;;;;13.57;100.00;100378.50;4929936;28;20051;-76
2023/05/10 07:28:38;;;;;;;33.65;20.58;;;;;;;13.55;100.00;100375.25;4934750;28;20499;-77
2023/05/10 07:31:06;;;;;;;34.53;20.75;;;;;;;13.60;100.00;100380.78;4933956;28;20158;-77
2023/05/10 07:33:33;;;;;;;37.10;20.05;;;;;;;13.58;100.00;100380.97;4932311;28;20488;-77
2023/05/10 07:36:00;;;;;;;34.63;20.33;;;;;;;13.50;100.00;100385.47;4934417;28;20066;-77
2023/05/10 07:38:26;;;;;;;32.92;21.17;;;;;;;13.53;100.00;100387.75;4934948;28;20457;-77
2023/05/10 07:40:53;;;;;;;34.35;20.60;;;;;;;13.52;100.00;100389.56;4967933;28;20512;-77
2023/05/10 07:43:19;;;;;;;36.35;20.58;;;;;;;13.55;100.00;100389.19;4937807;28;20138;-78
2023/05/10 07:45:46;;;;;;;40.28;22.70;;;;;;;13.59;100.00;100379.97;4937824;28;20094;-78
2023/05/10 07:48:14;;;;;;;39.10;23.17;;;;;;;13.65;100.00;100383.69;4938568;28;20583;-78
2023/05/10 07:50:41;;;;;;;40.20;22.63;;;;;;;13.79;100.00;100385.47;4948640;28;20466;-78
2023/05/10 07:53:07;;;;;;;34.72;21.55;;;;;;;13.88;100.00;100386.19;4956878;28;20139;-78
2023/05/10 07:55:34;;;;;;;34.75;19.98;;;;;;;13.92;100.00;100377.75;4935647;28;20048;-78
2023/05/10 07:58:01;;;;;;;29.60;19.67;;;;;;;13.86;100.00;100388.19;4930108;28;20058;-78
2023/05/10 08:00:28;;;;;;;30.25;19.00;;;;;;;13.77;100.00;100386.63;4935987;28;20242;-78
2023/05/10 08:02:54;;;;;;;26.33;18.42;;;;;;;13.57;100.00;100386.41;4935717;28;20139;-78
2023/05/10 08:05:22;;;;;;;28.95;18.63;;;;;;;13.56;100.00;100398.72;4935498;28;20083;-77
2023/05/10 08:07:49;;;;;;;28.98;16.15;;;;;;;13.52;100.00;100396.63;4934088;28;20078;-78
2023/05/10 08:10:16;;;;;;;29.40;17.10;;;;;;;13.56;100.00;100396.09;4970703;28;20135;-78
2023/05/10 08:12:43;;;;;;;27.50;17.45;;;;;;;13.64;100.00;100404.91;4926927;28;20048;-78
2023/05/10 08:15:10;;;;;;;27.33;17.45;;;;;;;13.56;100.00;100401.34;4935776;28;20138;-78
2023/05/10 08:17:37;;;;;;;26.55;16.80;;;;;;;13.43;100.00;100409.03;4935587;28;20048;-78
2023/05/10 08:20:04;;;;;;;26.08;17.70;;;;;;;13.50;100.00;100399.44;4935024;28;20075;-78
2023/05/10 08:22:32;;;;;;;28.23;18.10;;;;;;;13.50;100.00;100409.13;4932174;28;20048;-78
2023/05/10 08:24:59;;;;;;;31.20;19.90;;;;;;;13.55;100.00;100402.34;4936013;28;20058;-77
2023/05/10 08:27:25;;;;;;;29.85;19.55;;;;;;;13.55;100.00;100412.88;4934233;28;20062;-79
2023/05/10 08:29:52;;;;;;;32.10;19.40;;;;;;;13.62;100.00;100415.59;4935198;28;20055;-78
2023/05/10 08:32:19;;;;;;;31.55;20.33;;;;;;;13.60;100.00;100415.78;4933063;28;20305;-77
2023/05/10 08:34:45;;;;;;;36.45;20.35;;;;;;;13.55;100.00;100423.38;4935215;28;20134;-78
2023/05/10 08:37:13;;;;;;;35.30;20.73;;;;;;;13.55;100.00;100422.56;4968009;28;20053;-78
2023/05/10 08:39:41;;;;;;;40.25;23.75;;;;;;;13.52;100.00;100413.22;4942537;28;20519;-77
2023/05/10 08:42:09;;;;;;;43.80;23.48;;;;;;;13.61;100.00;100422.66;4934384;28;20094;-78
2023/05/10 08:44:37;;;;;;;48.67;24.80;;;;;;;13.84;100.00;100411.22;4974931;28;20060;-78
2023/05/10 08:47:06;;;;;;;42.50;24.00;;;;;;;13.96;100.00;100415.03;4915409;29;20471;-78
2023/05/10 08:49:34;;;;;;;44.65;25.58;;;;;;;14.18;100.00;100419.31;4917997;28;20062;-78
2023/05/10 08:52:05;;;;;;;46.70;25.88;;;;;;;14.35;100.00;100424.38;4929268;28;20052;-78
2023/05/10 08:54:32;;;;;;;44.95;26.35;;;;;;;14.50;100.00;100417.31;4939185;28;20062;-78
2023/05/10 08:57:01;;;;;;;50.25;26.10;;;;;;;14.32;100.00;100436.09;4944368;28;20059;-78
2023/05/10 08:59:28;;;;;;;45.55;24.23;;;;;;;14.27;100.00;100425.31;4941995;28;20071;-78
2023/05/10 09:01:58;;;;;;;44.85;24.70;;;;;;;14.21;100.00;100429.50;4933964;28;20108;-78
2023/05/10 09:04:25;;;;;;;46.08;24.83;;;;;;;14.35;100.00;100425.19;4937246;28;20134;-79
2023/05/10 09:06:52;;;;;;;43.97;23.92;;;;;;;14.45;100.00;100435.47;4954621;28;20077;-78
2023/05/10 09:09:19;;;;;;;46.38;25.50;;;;;;;14.58;100.00;100435.63;4943982;28;20083;-78
2023/05/10 09:11:46;;;;;;;43.47;23.33;;;;;;;14.47;100.00;100436.91;4917369;29;20171;-79
2023/05/10 09:14:17;;;;;;;38.63;22.83;;;;;;;14.58;100.00;100436.44;4931551;28;20551;-78
2023/05/10 09:16:43;;;;;;;37.88;23.52;;;;;;;14.82;100.00;100444.97;4935361;28;20047;-77
2023/05/10 09:19:10;;;;;;;36.53;21.48;;;;;;;14.81;100.00;100445.97;4934524;28;20086;-78
2023/05/10 09:21:38;;;;;;;35.08;22.70;;;;;;;15.16;100.00;100449.50;4933947;28;20044;-77
2023/05/10 09:24:05;;;;;;;33.22;20.42;;;;;;;15.05;100.00;100444.78;4932191;28;20055;-78
2023/05/10 09:26:33;;;;;;;23.70;17.05;;;;;;;15.05;100.00;100453.50;4933368;28;20047;-77
2023/05/10 09:29:02;;;;;;;26.33;16.45;;;;;;;15.58;100.00;100470.59;4933655;28;20059;-77
2023/05/10 09:31:46;;;;;;;27.35;17.08;;;;;;;16.00;100.00;100468.81;4933036;28;20131;-77
2023/05/10 09:34:16;;;;;;;26.67;16.95;;;;;;;16.11;100.00;100472.69;4964871;28;20083;-77
2023/05/10 09:36:56;;;;;;;24.85;17.00;;;;;;;16.73;99.06;100464.63;4921090;28;20057;-77
2023/05/10 09:39:31;;;;;;;24.42;16.75;;;;;;;17.22;97.23;100452.88;4914098;29;20049;-77
2023/05/10 09:41:59;;;;;;;23.60;16.08;;;;;;;17.02;94.82;100452.03;4963753;28;20048;-77
2023/05/10 09:44:26;;;;;;;35.83;17.70;;;;;;;16.59;94.81;100452.34;4914416;29;20048;-78
2023/05/10 09:46:54;;;;;;;65.25;20.13;;;;;;;16.20;95.30;100463.59;4926637;28;20119;-78
2023/05/10 09:49:21;;;;;;;24.48;16.63;;;;;;;15.89;96.25;100461.44;4933452;28;20143;-77
2023/05/10 09:51:48;;;;;;;24.98;16.85;;;;;;;15.65;97.75;100464.50;4972777;28;20052;-77
2023/05/10 09:54:16;;;;;;;27.67;16.63;;;;;;;15.62;98.24;100464.91;4915236;29;20135;-77
2023/05/10 09:56:43;;;;;;;25.95;17.23;;;;;;;15.59;98.54;100463.50;4914361;29;20083;-76
2023/05/10 09:59:12;;;;;;;23.05;16.67;;;;;;;15.54;97.96;100461.41;4914080;29;20059;-77
2023/05/10 10:01:40;;;;;;;21.77;15.38;;;;;;;15.35;98.04;100464.69;4915997;29;20056;-77
2023/05/10 10:04:10;;;;;;;26.05;16.50;;;;;;;15.49;98.01;100461.16;4920261;29;20611;-77
2023/05/10 10:06:38;;;;;;;23.48;16.23;;;;;;;15.76;97.88;100462.16;4973720;28;20128;-76
2023/05/10 10:09:05;;;;;;;20.20;15.15;;;;;;;16.04;97.24;100459.50;4913589;29;20059;-76
2023/05/10 10:11:32;;;;;;;23.90;16.85;;;;;;;16.20;94.86;100459.13;4923213;28;20043;-77
2023/05/10 10:13:59;;;;;;;22.63;15.63;;;;;;;16.07;93.75;100460.91;4933025;28;20052;-77
2023/05/10 10:16:26;;;;;;;25.95;17.15;;;;;;;16.54;93.81;100462.72;4932247;28;20139;-78
2023/05/10 10:18:52;;;;;;;26.05;16.33;;;;;;;16.56;93.65;100471.25;4932899;28;20054;-77
2023/05/10 10:21:21;;;;;;;24.45;16.33;;;;;;;16.85;92.72;100460.38;4932146;28;20054;-76
2023/05/10 10:23:47;;;;;;;20.83;14.75;;;;;;;17.01;91.88;100461.03;4933239;28;20059;-77
2023/05/10 10:26:15;;;;;;;22.50;14.80;;;;;;;16.89;91.87;100468.72;4932078;28;20087;-77
2023/05/10 10:28:50;;;;;;;19.05;12.70;;;;;;;16.39;90.91;100462.06;4934006;28;20122;-76
2023/05/10 10:31:27;;;;;;;16.60;11.95;;;;;;;16.41;91.66;100463.50;4932500;28;20068;-77
2023/05/10 10:34:01;;;;;;;23.90;13.20;;;;;;;16.86;91.67;100456.72;4932323;28;20062;-77
2023/05/10 10:36:30;;;;;;;19.67;13.73;;;;;;;17.17;91.03;100464.06;4931913;28;20585;-78
2023/05/10 10:39:00;;;;;;;16.98;12.50;;;;;;;17.42;88.95;100455.53;4932296;28;20146;-76
2023/05/10 10:41:32;;;;;;;19.25;11.90;;;;;;;16.88;88.31;100454.69;4931863;28;20044;-76
2023/05/10 10:44:40;;;;;;;18.92;12.05;;;;;;;16.69;88.90;100457.28;4931808;28;20134;-77
2023/05/10 10:47:11;;;;;;;18.15;12.60;;;;;;;16.81;88.53;100461.78;4932306;28;20062;-76
2023/05/10 10:49:48;;;;;;;46.00;15.35;;;;;;;16.68;90.31;100460.94;4932573;28;20492;-76
2023/05/10 10:52:23;;;;;;;56.13;14.40;;;;;;;16.15;90.59;100468.66;4965909;28;20521;-78
2023/05/10 10:54:55;;;;;;;22.48;11.82;;;;;;;16.05;92.99;100476.94;4915523;28;20131;-77
2023/05/10 10:57:22;;;;;;;20.15;10.73;;;;;;;15.96;93.38;100479.94;4916322;29;20496;-76
2023/05/10 10:59:49;;;;;;;14.38;10.52;;;;;;;15.68;93.95;100474.69;4916229;29;20052;-77
2023/05/10 11:02:35;;;;;;;41.58;13.20;;;;;;;15.78;94.23;100483.06;4916707;29;20058;-77
2023/05/10 11:05:44;;;;;;;27.85;12.07;;;;;;;15.91;93.91;100475.25;4929682;28;20048;-77
2023/05/10 11:08:15;;;;;;;16.55;10.65;;;;;;;15.84;94.30;100469.09;4972555;28;20060;-77
2023/05/10 11:10:52;;;;;;;13.00;9.77;;;;;;;15.90;93.51;100470.97;4916936;28;20067;-77
2023/05/10 11:13:28;;;;;;;14.38;10.35;;;;;;;16.27;93.39;100481.09;4917755;28;20270;-77